createdAt,value
2022-08-17T00:00:43.601Z,72.31
2022-08-17T00:05:43.690Z,72.29
2022-08-17T00:10:45.476Z,73.05
2022-08-17T00:15:47.340Z,72.50
2022-08-17T00:20:48.700Z,72.67
2022-08-17T00:25:50.329Z,72.76
2022-08-17T00:30:53.516Z,72.74
2022-08-17T00:35:55.565Z,73.33
2022-08-17T00:41:01.971Z,74.16
2022-08-17T00:46:07.231Z,75.24
2022-08-17T00:51:15.993Z,74.52
2022-08-17T00:56:21.091Z,74.49
2022-08-17T01:01:22.946Z,75.00
2022-08-17T01:06:27.084Z,75.93
2022-08-17T01:11:29.778Z,75.88
2022-08-17T01:16:32.310Z,76.24
2022-08-17T01:21:43.971Z,76.64
2022-08-17T01:26:45.465Z,77.00
2022-08-17T01:31:52.681Z,77.86
2022-08-17T01:36:54.115Z,78.26
2022-08-17T01:41:58.515Z,78.11
2022-08-17T01:46:59.871Z,78.87
2022-08-17T01:52:10.081Z,78.95
2022-08-17T01:57:11.497Z,79.41
2022-08-17T02:02:12.860Z,79.77
2022-08-17T02:07:32.647Z,80.17
2022-08-17T02:12:54.110Z,80.19
2022-08-17T02:17:55.635Z,80.91
2022-08-17T02:22:58.116Z,80.76
2022-08-17T02:27:59.507Z,81.09
2022-08-17T02:33:04.223Z,81.45
2022-08-17T02:38:07.821Z,81.46
2022-08-17T02:43:09.435Z,81.23
2022-08-17T02:48:10.958Z,81.84
2022-08-17T02:53:12.361Z,81.51
2022-08-17T02:58:14.193Z,80.98
2022-08-17T03:03:18.939Z,80.89
2022-08-17T03:08:20.358Z,80.94
2022-08-17T03:13:22.443Z,80.80
2022-08-17T03:18:26.380Z,81.11
2022-08-17T03:23:29.686Z,81.02
2022-08-17T03:28:31.709Z,81.40
2022-08-17T03:33:33.486Z,80.85
2022-08-17T03:38:39.468Z,81.53
2022-08-17T03:43:40.971Z,80.76
2022-08-17T03:49:01.205Z,81.19
2022-08-17T03:54:21.413Z,81.20
2022-08-17T03:59:23.589Z,81.52
2022-08-17T04:04:27.754Z,81.14
2022-08-17T04:09:29.528Z,80.98
2022-08-17T04:14:36.134Z,80.57
2022-08-17T04:19:49.135Z,81.63
2022-08-17T04:24:50.502Z,81.16
2022-08-17T04:29:55.635Z,81.06
2022-08-17T04:34:57.378Z,81.13
2022-08-17T04:40:17.283Z,81.44
2022-08-17T04:45:18.759Z,80.66
2022-08-17T04:50:20.101Z,80.51
2022-08-17T04:55:21.677Z,80.61
2022-08-17T05:00:25.746Z,80.30
2022-08-17T05:05:31.841Z,80.11
2022-08-17T05:10:35.107Z,79.83
2022-08-17T05:15:39.506Z,80.42
2022-08-17T05:20:46.707Z,79.06
2022-08-17T05:25:49.758Z,79.07
2022-08-17T05:30:52.008Z,78.28
2022-08-17T05:35:54.589Z,76.94
2022-08-17T05:40:56.551Z,76.42
2022-08-17T05:46:16.455Z,75.85
2022-08-17T05:51:28.032Z,73.48
2022-08-17T05:56:51.707Z,74.48
2022-08-17T06:01:57.985Z,73.76
2022-08-17T06:07:18.885Z,74.83
2022-08-17T06:12:29.074Z,73.56
2022-08-17T06:17:31.125Z,73.27
2022-08-17T06:22:34.851Z,73.22
2022-08-17T06:27:38.710Z,72.43
2022-08-17T06:32:42.302Z,70.58
2022-08-17T06:38:02.340Z,70.75
2022-08-17T06:43:06.680Z,69.01
2022-08-17T06:48:12.668Z,67.55
2022-08-17T06:53:29.369Z,66.78
2022-08-17T06:58:32.612Z,66.53
2022-08-17T07:03:54.353Z,68.47
2022-08-17T07:09:00.012Z,66.94
2022-08-17T07:14:18.841Z,66.95
2022-08-17T07:19:25.491Z,68.14
2022-08-17T07:24:33.181Z,66.65
2022-08-17T07:29:46.657Z,66.93
2022-08-17T07:35:11.112Z,67.58
2022-08-17T07:40:17.527Z,67.89
2022-08-17T07:45:37.422Z,71.18
2022-08-17T07:50:39.481Z,74.76
2022-08-17T07:55:41.802Z,73.23
2022-08-17T08:00:43.257Z,75.31
2022-08-17T08:05:52.703Z,73.38
2022-08-17T08:10:59.223Z,77.40
2022-08-17T08:16:21.337Z,71.61
2022-08-17T08:21:41.781Z,76.01
2022-08-17T08:27:01.326Z,75.18
2022-08-17T08:32:07.662Z,74.85
2022-08-17T08:37:16.343Z,80.27
2022-08-17T08:42:38.355Z,76.31
2022-08-17T08:47:58.888Z,76.62
2022-08-17T08:53:23.427Z,77.54
2022-08-17T08:58:32.146Z,76.67
2022-08-17T09:03:53.463Z,74.23
2022-08-17T09:08:55.497Z,70.56
2022-08-17T09:14:21.849Z,67.08
2022-08-17T09:19:38.117Z,62.88
2022-08-17T09:24:43.682Z,59.21
2022-08-17T09:29:49.816Z,45.28
2022-08-17T09:34:53.556Z,36.97
2022-08-17T09:40:08.402Z,38.53
2022-08-17T09:45:16.116Z,40.29
2022-08-17T09:51:01.564Z,42.35
2022-08-17T09:56:03.394Z,39.77
2022-08-17T10:01:17.048Z,35.05
2022-08-17T10:06:21.952Z,38.47
2022-08-17T10:11:50.381Z,43.13
2022-08-17T10:16:56.208Z,43.90
2022-08-17T10:22:34.964Z,40.04
2022-08-17T10:27:49.112Z,43.05
2022-08-17T10:33:02.761Z,43.74
2022-08-17T10:38:04.088Z,40.04
2022-08-17T10:43:29.352Z,37.31
2022-08-17T10:48:33.254Z,40.60
2022-08-17T10:53:34.724Z,43.22
2022-08-17T10:58:57.148Z,44.90
2022-08-17T11:04:03.517Z,45.68
2022-08-17T11:09:10.828Z,46.16
2022-08-17T11:14:17.070Z,49.05
2022-08-17T11:19:37.359Z,43.73
2022-08-17T11:24:40.370Z,42.04
2022-08-17T11:29:49.439Z,43.20
2022-08-17T11:35:06.850Z,38.25
2022-08-17T11:40:11.547Z,38.65
2022-08-17T11:45:33.102Z,37.70
2022-08-17T11:51:15.574Z,33.63
2022-08-17T11:56:30.193Z,33.41
2022-08-17T12:01:31.537Z,36.23
2022-08-17T12:06:45.358Z,38.04
2022-08-17T12:12:01.579Z,36.46
2022-08-17T12:17:09.923Z,37.97
2022-08-17T12:22:23.489Z,41.44
2022-08-17T12:27:46.253Z,39.34
2022-08-17T12:32:54.845Z,37.66
2022-08-17T12:38:00.256Z,38.99
2022-08-17T12:43:07.597Z,40.95
2022-08-17T12:48:11.007Z,38.26
2022-08-17T12:53:17.335Z,37.88
2022-08-17T12:58:21.129Z,41.01
2022-08-17T13:03:24.491Z,43.09
2022-08-17T13:08:37.235Z,43.78
2022-08-17T13:13:40.551Z,43.32
2022-08-17T13:18:55.572Z,43.63
2022-08-17T13:24:00.120Z,42.55
2022-08-17T13:29:05.327Z,41.74
2022-08-17T13:34:31.071Z,45.32
2022-08-17T13:39:40.578Z,46.10
2022-08-17T13:44:42.698Z,46.64
2022-08-17T13:49:49.009Z,43.28
2022-08-17T13:54:51.444Z,42.84
2022-08-17T14:00:09.258Z,43.60
2022-08-17T14:05:10.615Z,44.04
2022-08-17T14:10:17.320Z,46.01
2022-08-17T14:15:20.597Z,46.75
2022-08-17T14:20:22.415Z,46.51
2022-08-17T14:25:26.312Z,46.04
2022-08-17T14:30:29.841Z,46.84
2022-08-17T14:35:31.580Z,45.95
2022-08-17T14:40:34.661Z,46.28
2022-08-17T14:45:36.037Z,46.72
2022-08-17T14:50:40.584Z,46.87
2022-08-17T14:55:42.410Z,47.87
2022-08-17T15:00:43.794Z,47.35
2022-08-17T15:05:46.728Z,49.11
2022-08-17T15:10:49.174Z,48.78
2022-08-17T15:15:50.633Z,49.04
2022-08-17T15:20:52.718Z,50.05
2022-08-17T15:25:54.397Z,49.46
2022-08-17T15:30:55.785Z,50.67
2022-08-17T15:35:59.025Z,50.13
2022-08-17T15:41:00.377Z,49.31
2022-08-17T15:46:01.800Z,49.36
2022-08-17T15:51:03.152Z,49.85
2022-08-17T15:56:05.365Z,49.85
2022-08-17T16:01:18.211Z,50.75
2022-08-17T16:06:28.684Z,50.50
2022-08-17T16:11:30.235Z,50.31
2022-08-17T16:16:31.594Z,50.85
2022-08-17T16:21:43.201Z,50.81
2022-08-17T16:26:44.715Z,50.67
2022-08-17T16:31:46.093Z,50.93
2022-08-17T16:36:54.675Z,51.12
2022-08-17T16:41:57.638Z,50.73
2022-08-17T16:47:00.707Z,50.48
2022-08-17T16:52:03.256Z,50.58
2022-08-17T16:57:05.243Z,50.19
2022-08-17T17:02:11.219Z,50.26
2022-08-17T17:07:33.652Z,51.11
2022-08-17T17:13:01.245Z,50.33
2022-08-17T17:18:06.194Z,48.57
2022-08-17T17:23:12.683Z,49.11
2022-08-17T17:28:24.885Z,49.92
2022-08-17T17:33:29.123Z,50.06
2022-08-17T17:38:39.252Z,51.16
2022-08-17T17:43:41.362Z,51.41
2022-08-17T17:48:42.753Z,51.34
2022-08-17T17:54:02.896Z,53.20
2022-08-17T17:59:12.791Z,52.81
2022-08-17T18:04:31.907Z,53.04
2022-08-17T18:09:34.029Z,54.16
2022-08-17T18:15:02.072Z,54.50
2022-08-17T18:20:07.052Z,54.77
2022-08-17T18:25:28.409Z,54.38
2022-08-17T18:30:29.869Z,56.01
2022-08-17T18:35:32.588Z,57.02
2022-08-17T18:40:36.116Z,57.12
2022-08-17T18:45:50.045Z,58.43
2022-08-17T18:50:53.583Z,58.00
2022-08-17T18:56:13.659Z,58.64
2022-08-17T19:01:19.226Z,60.04
2022-08-17T19:06:28.233Z,60.75
2022-08-17T19:11:31.978Z,60.22
2022-08-17T19:16:33.330Z,61.03
2022-08-17T19:21:40.354Z,64.12
2022-08-17T19:26:54.392Z,62.50
2022-08-17T19:31:58.694Z,63.12
2022-08-17T19:37:03.657Z,63.75
2022-08-17T19:42:12.477Z,64.26
2022-08-17T19:47:54.434Z,64.38
2022-08-17T19:53:02.023Z,65.06
2022-08-17T19:58:08.007Z,65.96
2022-08-17T20:03:41.812Z,66.83
2022-08-17T20:08:50.420Z,67.54
2022-08-17T20:14:13.243Z,68.61
2022-08-17T20:19:28.324Z,68.57
2022-08-17T20:24:32.790Z,70.29
2022-08-17T20:29:54.080Z,69.68
2022-08-17T20:35:14.097Z,71.69
2022-08-17T20:40:19.271Z,72.70
2022-08-17T20:45:20.628Z,73.01
2022-08-17T20:50:36.101Z,72.98
2022-08-17T20:55:39.349Z,72.86
2022-08-17T21:00:56.515Z,73.55
2022-08-17T21:06:14.445Z,74.37
2022-08-17T21:11:56.748Z,75.22
2022-08-17T21:17:07.896Z,76.76
2022-08-17T21:22:28.500Z,77.78
2022-08-17T21:27:37.668Z,78.52
2022-08-17T21:32:40.483Z,77.25
2022-08-17T21:37:48.367Z,77.02
2022-08-17T21:42:52.695Z,77.45
2022-08-17T21:48:07.956Z,77.26
2022-08-17T21:53:13.165Z,77.63
2022-08-17T21:58:29.290Z,77.94
2022-08-17T22:03:31.148Z,77.76
2022-08-17T22:08:32.508Z,77.50
2022-08-17T22:13:37.481Z,77.84
2022-08-17T22:18:39.930Z,79.10
2022-08-17T22:24:01.070Z,78.73
2022-08-17T22:29:02.481Z,79.00
2022-08-17T22:34:03.782Z,79.37
2022-08-17T22:39:10.919Z,81.23
2022-08-17T22:44:14.291Z,81.36
2022-08-17T22:49:21.919Z,80.72
2022-08-17T22:54:41.775Z,80.20
2022-08-17T22:59:43.671Z,81.11
2022-08-17T23:04:47.713Z,81.13
2022-08-17T23:09:49.146Z,81.76
2022-08-17T23:14:55.936Z,82.80
2022-08-17T23:19:57.350Z,83.55
2022-08-17T23:24:59.772Z,83.73
2022-08-17T23:30:01.313Z,85.10
2022-08-17T23:35:02.667Z,85.00
2022-08-17T23:40:05.374Z,84.74
2022-08-17T23:45:07.767Z,85.35
2022-08-17T23:50:09.401Z,85.76
2022-08-17T23:55:10.821Z,85.79
